createdAt,value
2022-11-13T00:02:48.827Z,8.41
2022-11-13T00:07:58.366Z,8.41
2022-11-13T00:13:07.189Z,8.39
2022-11-13T00:18:22.373Z,8.43
2022-11-13T00:23:38.581Z,8.37
2022-11-13T00:28:57.050Z,8.41
2022-11-13T00:34:41.129Z,8.42
2022-11-13T00:39:40.871Z,8.38
2022-11-13T00:44:50.423Z,8.39
2022-11-13T00:50:01.674Z,8.28
2022-11-13T00:55:10.935Z,8.27
2022-11-13T01:00:20.502Z,8.21
2022-11-13T01:05:31.899Z,8.09
2022-11-13T01:10:45.586Z,8.06
2022-11-13T01:15:56.152Z,8.02
2022-11-13T01:21:13.562Z,8.01
2022-11-13T01:26:24.391Z,7.95
2022-11-13T01:31:33.810Z,7.97
2022-11-13T01:36:45.170Z,7.94
2022-11-13T01:41:54.837Z,7.89
2022-11-13T01:47:03.786Z,7.87
2022-11-13T01:52:18.510Z,7.84
2022-11-13T01:57:28.084Z,7.83
2022-11-13T02:02:36.818Z,7.78
2022-11-13T02:07:48.528Z,7.72
2022-11-13T02:12:57.798Z,7.73
2022-11-13T02:18:08.761Z,7.69
2022-11-13T02:23:25.605Z,7.60
2022-11-13T02:28:36.549Z,7.62
2022-11-13T02:33:45.325Z,7.57
2022-11-13T02:38:55.274Z,7.50
2022-11-13T02:44:06.482Z,7.47
2022-11-13T02:49:15.780Z,7.45
2022-11-13T02:54:25.376Z,7.39
2022-11-13T02:59:37.182Z,7.36
2022-11-13T03:05:11.514Z,7.32
2022-11-13T03:10:17.219Z,7.24
2022-11-13T03:15:28.566Z,7.21
2022-11-13T03:20:43.083Z,7.12
2022-11-13T03:25:54.650Z,7.07
2022-11-13T03:31:09.914Z,7.04
2022-11-13T03:36:20.498Z,7.01
2022-11-13T03:41:29.163Z,6.92
2022-11-13T03:46:40.903Z,6.88
2022-11-13T03:51:50.153Z,6.84
2022-11-13T03:56:59.181Z,6.82
2022-11-13T04:02:10.902Z,6.80
2022-11-13T04:07:20.029Z,6.77
2022-11-13T04:12:29.379Z,6.74
2022-11-13T04:17:41.088Z,6.62
2022-11-13T04:22:50.074Z,6.67
2022-11-13T04:27:58.902Z,6.66
2022-11-13T04:33:10.459Z,6.63
2022-11-13T04:38:19.641Z,6.62
2022-11-13T04:43:28.318Z,6.60
2022-11-13T04:48:39.420Z,6.55
2022-11-13T04:53:47.690Z,6.51
2022-11-13T04:58:56.517Z,6.47
2022-11-13T05:04:09.015Z,6.42
2022-11-13T05:09:18.180Z,6.36
2022-11-13T05:14:26.947Z,6.28
2022-11-13T05:19:38.794Z,6.26
2022-11-13T05:24:48.287Z,6.24
2022-11-13T05:29:56.808Z,6.24
2022-11-13T05:35:08.825Z,6.09
2022-11-13T05:40:17.708Z,6.10
2022-11-13T05:45:26.624Z,6.04
2022-11-13T05:50:38.109Z,6.00
2022-11-13T05:55:46.707Z,5.98
2022-11-13T06:00:55.192Z,5.96
2022-11-13T06:06:09.150Z,5.92
2022-11-13T06:11:20.756Z,5.86
2022-11-13T06:16:31.479Z,5.84
2022-11-13T06:21:45.133Z,5.83
2022-11-13T06:26:54.263Z,5.80
2022-11-13T06:32:03.796Z,5.72
2022-11-13T06:37:15.119Z,5.71
2022-11-13T06:42:23.689Z,5.69
2022-11-13T06:47:32.347Z,5.64
2022-11-13T06:52:43.275Z,5.63
2022-11-13T06:57:52.127Z,5.61
2022-11-13T07:03:03.064Z,5.61
2022-11-13T07:08:14.738Z,5.62
2022-11-13T07:13:23.660Z,5.65
2022-11-13T07:18:35.712Z,5.71
2022-11-13T07:23:47.768Z,5.76
2022-11-13T07:28:56.475Z,5.81
2022-11-13T07:34:06.303Z,5.88
2022-11-13T07:39:22.162Z,5.85
2022-11-13T07:44:53.393Z,5.88
2022-11-13T07:50:08.220Z,6.02
2022-11-13T07:55:24.548Z,6.05
2022-11-13T08:00:36.813Z,6.24
2022-11-13T08:05:47.778Z,6.42
2022-11-13T08:10:59.502Z,6.53
2022-11-13T08:16:09.202Z,6.55
2022-11-13T08:21:18.826Z,6.69
2022-11-13T08:26:30.953Z,6.73
2022-11-13T08:31:40.801Z,6.78
2022-11-13T08:36:52.117Z,6.79
2022-11-13T08:42:05.116Z,6.84
2022-11-13T08:47:14.127Z,6.83
2022-11-13T08:52:23.499Z,6.95
2022-11-13T08:57:35.240Z,7.01
2022-11-13T09:02:45.189Z,7.12
2022-11-13T09:07:56.279Z,7.17
2022-11-13T09:13:09.821Z,7.31
2022-11-13T09:18:18.928Z,7.50
2022-11-13T09:23:28.931Z,8.60
2022-11-13T09:28:41.154Z,9.79
2022-11-13T09:33:50.072Z,10.80
2022-11-13T09:38:58.718Z,11.56
2022-11-13T09:44:19.493Z,11.72
2022-11-13T09:49:31.921Z,12.02
2022-11-13T09:54:41.729Z,12.43
2022-11-13T09:59:55.360Z,12.89
2022-11-13T10:05:06.486Z,13.44
2022-11-13T10:10:30.793Z,13.62
2022-11-13T10:15:43.218Z,13.52
2022-11-13T10:20:54.426Z,13.41
2022-11-13T10:26:07.351Z,13.36
2022-11-13T10:31:20.640Z,13.35
2022-11-13T10:36:39.259Z,13.44
2022-11-13T10:41:51.863Z,13.52
2022-11-13T10:47:42.354Z,13.50
2022-11-13T10:52:53.361Z,13.53
2022-11-13T10:58:04.258Z,13.55
2022-11-13T11:03:16.746Z,13.64
2022-11-13T11:08:29.995Z,13.71
2022-11-13T11:13:40.048Z,13.72
2022-11-13T11:18:57.128Z,13.62
2022-11-13T11:24:13.971Z,13.68
2022-11-13T11:29:28.977Z,13.67
2022-11-13T11:34:44.860Z,13.71
2022-11-13T11:39:55.736Z,13.72
2022-11-13T11:45:08.767Z,13.69
2022-11-13T11:50:25.173Z,13.65
2022-11-13T11:55:49.995Z,13.59
2022-11-13T12:01:12.252Z,13.50
2022-11-13T12:06:28.071Z,13.51
2022-11-13T12:11:37.796Z,13.61
2022-11-13T12:16:49.684Z,13.72
2022-11-13T12:22:06.955Z,13.83
2022-11-13T12:27:21.733Z,13.93
2022-11-13T12:32:43.416Z,14.05
2022-11-13T12:37:56.659Z,14.06
2022-11-13T12:43:16.801Z,14.05
2022-11-13T12:48:30.717Z,14.10
2022-11-13T12:53:57.962Z,14.11
2022-11-13T12:59:29.670Z,14.06
2022-11-13T13:04:50.009Z,14.05
2022-11-13T13:10:17.897Z,14.08
2022-11-13T13:15:33.759Z,14.08
2022-11-13T13:20:42.668Z,14.06
2022-11-13T13:26:04.424Z,14.02
2022-11-13T13:31:20.285Z,14.03
2022-11-13T13:36:33.615Z,14.09
2022-11-13T13:41:51.689Z,14.12
2022-11-13T13:47:02.132Z,14.12
2022-11-13T13:52:17.837Z,14.17
2022-11-13T13:57:30.542Z,14.19
2022-11-13T14:02:48.375Z,14.14
2022-11-13T14:07:56.795Z,14.08
2022-11-13T14:13:09.503Z,14.05
2022-11-13T14:18:19.267Z,14.13
2022-11-13T14:23:29.456Z,14.46
2022-11-13T14:28:52.282Z,15.01
2022-11-13T14:34:04.855Z,15.16
2022-11-13T14:39:26.989Z,15.05
2022-11-13T14:44:39.757Z,14.93
2022-11-13T14:49:49.498Z,14.80
2022-11-13T14:55:15.734Z,14.57
2022-11-13T15:00:34.525Z,14.47
2022-11-13T15:05:45.991Z,14.36
2022-11-13T15:10:59.933Z,14.21
2022-11-13T15:16:20.321Z,14.00
2022-11-13T15:21:36.465Z,13.72
2022-11-13T15:26:48.239Z,13.51
2022-11-13T15:32:06.387Z,13.35
2022-11-13T15:37:25.861Z,13.13
2022-11-13T15:42:41.220Z,12.98
2022-11-13T15:48:01.523Z,12.74
2022-11-13T15:53:14.966Z,12.65
2022-11-13T15:58:33.329Z,12.44
2022-11-13T16:03:53.920Z,12.25
2022-11-13T16:09:03.653Z,12.10
2022-11-13T16:14:21.882Z,11.95
2022-11-13T16:19:46.757Z,11.84
2022-11-13T16:25:05.454Z,11.70
2022-11-13T16:30:18.070Z,11.57
2022-11-13T16:35:26.551Z,11.38
2022-11-13T16:40:39.599Z,11.22
2022-11-13T16:45:47.551Z,11.09
2022-11-13T16:50:57.247Z,10.95
2022-11-13T16:56:16.056Z,10.83
2022-11-13T17:01:25.085Z,10.68
2022-11-13T17:06:35.117Z,10.55
2022-11-13T17:11:49.106Z,10.39
2022-11-13T17:16:57.342Z,10.25
2022-11-13T17:22:05.999Z,10.08
2022-11-13T17:27:16.866Z,9.88
2022-11-13T17:32:25.667Z,9.75
2022-11-13T17:37:33.765Z,9.70
2022-11-13T17:42:44.689Z,9.59
2022-11-13T17:47:52.862Z,9.53
2022-11-13T17:53:01.237Z,9.41
2022-11-13T17:58:14.622Z,9.29
2022-11-13T18:03:23.639Z,9.21
2022-11-13T18:08:32.063Z,9.14
2022-11-13T18:13:43.070Z,9.09
2022-11-13T18:18:55.714Z,9.04
2022-11-13T18:24:05.656Z,9.00
2022-11-13T18:29:19.000Z,8.95
2022-11-13T18:34:29.335Z,8.84
2022-11-13T18:39:37.312Z,8.76
2022-11-13T18:44:48.321Z,8.70
2022-11-13T18:49:56.167Z,8.63
2022-11-13T18:55:04.626Z,8.54
2022-11-13T19:00:17.974Z,8.47
2022-11-13T19:05:26.211Z,8.38
2022-11-13T19:10:36.984Z,8.31
2022-11-13T19:15:51.069Z,8.21
2022-11-13T19:20:59.446Z,8.15
2022-11-13T19:26:09.052Z,8.07
2022-11-13T19:31:23.678Z,8.03
2022-11-13T19:36:32.873Z,7.97
2022-11-13T19:41:51.433Z,7.92
2022-11-13T19:47:03.812Z,7.86
2022-11-13T19:52:20.692Z,7.79
2022-11-13T19:57:31.162Z,7.76
2022-11-13T20:02:42.121Z,7.73
2022-11-13T20:07:53.898Z,7.69
2022-11-13T20:13:03.621Z,7.66
2022-11-13T20:18:19.353Z,7.60
2022-11-13T20:23:29.846Z,7.57
2022-11-13T20:28:40.216Z,7.52
2022-11-13T20:33:52.929Z,7.49
2022-11-13T20:39:09.160Z,7.43
2022-11-13T20:44:17.878Z,7.37
2022-11-13T20:49:28.617Z,7.31
2022-11-13T20:54:36.605Z,7.25
2022-11-13T20:59:44.804Z,7.20
2022-11-13T21:04:57.149Z,7.17
2022-11-13T21:10:06.767Z,7.13
2022-11-13T21:15:16.001Z,7.10
2022-11-13T21:20:30.795Z,7.06
2022-11-13T21:25:39.274Z,7.01
2022-11-13T21:30:51.873Z,6.97
2022-11-13T21:36:19.982Z,6.91
2022-11-13T21:41:29.641Z,6.85
2022-11-13T21:46:42.367Z,6.81
2022-11-13T21:51:54.069Z,6.77
2022-11-13T21:57:02.191Z,6.71
2022-11-13T22:02:12.810Z,6.66
2022-11-13T22:07:23.605Z,6.61
2022-11-13T22:12:32.191Z,6.56
2022-11-13T22:17:41.460Z,6.53
2022-11-13T22:22:53.363Z,6.47
2022-11-13T22:28:02.407Z,6.42
2022-11-13T22:33:10.525Z,6.38
2022-11-13T22:38:22.660Z,6.36
2022-11-13T22:43:34.304Z,6.33
2022-11-13T22:48:45.034Z,6.29
2022-11-13T22:53:57.988Z,6.25
2022-11-13T22:59:08.025Z,6.22
2022-11-13T23:04:17.189Z,6.17
2022-11-13T23:09:29.133Z,6.13
2022-11-13T23:14:38.562Z,6.10
2022-11-13T23:19:46.687Z,6.09
2022-11-13T23:24:59.159Z,6.08
2022-11-13T23:30:09.043Z,6.08
2022-11-13T23:35:18.280Z,6.08
2022-11-13T23:40:29.483Z,6.08
2022-11-13T23:45:37.766Z,6.06
2022-11-13T23:50:46.313Z,6.04
2022-11-13T23:55:58.292Z,6.03
